WAT5467 LSZH-LDSP
Flight info
| Callsign | WAT5467 |
|---|---|
| Flight time | N/A |
| Altitude | 35000 |
| Route | DEGES Z2 XEBIX L607 ELMEM N606 GIRIS DCT NIVAS DCT PEVAL DCT SAL |
| Aircraft | A320/M-SDE3FGHIRWY/LB1 |
Departure
| Time | N/A |
|---|---|
| Airport | Zürich Airport (LSZH) |
Arrival
| Time | 2026-05-04 20:56 |
|---|---|
| Airport | Split Saint Jerome Airport (LDSP) |
| Time | Latitude | Longitude | Altitude | Speed | Heading |
|---|---|---|---|---|---|
| 2026-05-04 20:50 | 43.38431 | 16.02441 | 3727 ft | 227 kts | 45° |
| 2026-05-04 20:50 | 43.39479 | 16.04048 | 3621 ft | 226 kts | 51° |
| 2026-05-04 20:50 | 43.40452 | 16.05745 | 3484 ft | 225 kts | 52° |
| 2026-05-04 20:51 | 43.41391 | 16.07424 | 3335 ft | 218 kts | 52° |
| 2026-05-04 20:51 | 43.42298 | 16.09043 | 3192 ft | 210 kts | 52° |
| 2026-05-04 20:51 | 43.43170 | 16.10598 | 3126 ft | 198 kts | 52° |
| 2026-05-04 20:51 | 43.43984 | 16.12051 | 2988 ft | 188 kts | 53° |
| 2026-05-04 20:52 | 43.44772 | 16.13459 | 2771 ft | 181 kts | 53° |
| 2026-05-04 20:52 | 43.45523 | 16.14798 | 2550 ft | 174 kts | 53° |
| 2026-05-04 20:52 | 43.46244 | 16.16086 | 2339 ft | 166 kts | 54° |
| 2026-05-04 20:52 | 43.46934 | 16.17320 | 2124 ft | 159 kts | 54° |
| 2026-05-04 20:53 | 43.47584 | 16.18483 | 1922 ft | 150 kts | 54° |
| 2026-05-04 20:53 | 43.48205 | 16.19593 | 1722 ft | 144 kts | 53° |
| 2026-05-04 20:53 | 43.48806 | 16.20670 | 1524 ft | 143 kts | 53° |
| 2026-05-04 20:53 | 43.49214 | 16.21401 | 1392 ft | 143 kts | 53° |
| 2026-05-04 20:54 | 43.50015 | 16.22836 | 1141 ft | 142 kts | 52° |
| 2026-05-04 20:54 | 43.50619 | 16.23917 | 948 ft | 142 kts | 51° |
| 2026-05-04 20:54 | 43.51222 | 16.24992 | 760 ft | 142 kts | 52° |
| 2026-05-04 20:54 | 43.51816 | 16.26068 | 588 ft | 141 kts | 52° |
| 2026-05-04 20:55 | 43.52409 | 16.27143 | 355 ft | 140 kts | 52° |
| 2026-05-04 20:55 | 43.52812 | 16.27862 | 246 ft | 141 kts | 51° |
| 2026-05-04 20:55 | 43.53411 | 16.28925 | 105 ft | 140 kts | 52° |
| 2026-05-04 20:55 | 43.53924 | 16.29853 | 72 ft | 96 kts | 51° |
| 2026-05-04 20:56 | 43.54161 | 16.30267 | 71 ft | 30 kts | 52° |
| 2026-05-04 20:56 | 43.54291 | 16.30502 | 61 ft | 30 kts | 53° |
| 2026-05-04 20:56 | 43.54418 | 16.30736 | 57 ft | 31 kts | 52° |
| 2026-05-04 20:56 | 43.54550 | 16.30981 | 56 ft | 32 kts | 66° |
| 2026-05-04 20:57 | 43.54564 | 16.31093 | 59 ft | 5 kts | 11° |
| 2026-05-04 20:57 | 43.54573 | 16.31039 | 62 ft | 16 kts | 262° |
| 2026-05-04 20:57 | 43.54314 | 16.30548 | 55 ft | 109 kts | 230° |
| 2026-05-04 20:57 | 43.53782 | 16.29863 | 61 ft | 56 kts | 210° |
| 2026-05-04 20:58 | 43.53714 | 16.29829 | 66 ft | 0 kts | 127° |
| 2026-05-04 20:58 | 43.53714 | 16.29830 | 66 ft | 0 kts | 123° |